sensor_id;sensor_type;location;lat;lon;timestamp;P1;durP1;ratioP1;P2;durP2;ratioP2
8293;SDS011;4185;41.506;24.938;2023-12-28T00:01:37;24.47;;;13.33;;
8293;SDS011;4185;41.506;24.938;2023-12-28T00:04:04;16.07;;;10.93;;
8293;SDS011;4185;41.506;24.938;2023-12-28T00:06:32;10.67;;;7.17;;
8293;SDS011;4185;41.506;24.938;2023-12-28T00:08:59;13.73;;;7.87;;
8293;SDS011;4185;41.506;24.938;2023-12-28T00:11:26;8.67;;;5.43;;
8293;SDS011;4185;41.506;24.938;2023-12-28T00:13:53;9.23;;;5.13;;
8293;SDS011;4185;41.506;24.938;2023-12-28T00:16:20;13.83;;;6.00;;
8293;SDS011;4185;41.506;24.938;2023-12-28T00:18:46;12.43;;;6.80;;
8293;SDS011;4185;41.506;24.938;2023-12-28T00:21:13;12.20;;;6.30;;
8293;SDS011;4185;41.506;24.938;2023-12-28T00:23:41;9.03;;;5.53;;
8293;SDS011;4185;41.506;24.938;2023-12-28T00:26:08;15.43;;;7.00;;
8293;SDS011;4185;41.506;24.938;2023-12-28T00:28:35;16.50;;;8.67;;
8293;SDS011;4185;41.506;24.938;2023-12-28T00:31:01;20.30;;;8.67;;
8293;SDS011;4185;41.506;24.938;2023-12-28T00:33:28;18.17;;;10.13;;
8293;SDS011;4185;41.506;24.938;2023-12-28T00:35:55;14.87;;;8.83;;
8293;SDS011;4185;41.506;24.938;2023-12-28T00:38:22;12.90;;;7.80;;
8293;SDS011;4185;41.506;24.938;2023-12-28T00:40:50;12.10;;;6.57;;
8293;SDS011;4185;41.506;24.938;2023-12-28T00:43:16;11.87;;;7.03;;
8293;SDS011;4185;41.506;24.938;2023-12-28T00:45:43;16.77;;;8.20;;
8293;SDS011;4185;41.506;24.938;2023-12-28T00:48:10;14.77;;;8.33;;
8293;SDS011;4185;41.506;24.938;2023-12-28T00:50:36;16.80;;;9.47;;
8293;SDS011;4185;41.506;24.938;2023-12-28T00:53:03;15.97;;;8.67;;
8293;SDS011;4185;41.506;24.938;2023-12-28T00:55:30;13.87;;;8.20;;
8293;SDS011;4185;41.506;24.938;2023-12-28T00:57:58;17.43;;;9.77;;
8293;SDS011;4185;41.506;24.938;2023-12-28T01:00:25;12.47;;;8.33;;
8293;SDS011;4185;41.506;24.938;2023-12-28T01:02:51;13.37;;;8.07;;
8293;SDS011;4185;41.506;24.938;2023-12-28T01:05:18;17.10;;;9.33;;
8293;SDS011;4185;41.506;24.938;2023-12-28T01:07:46;7.13;;;5.47;;
8293;SDS011;4185;41.506;24.938;2023-12-28T01:10:13;15.47;;;7.60;;
8293;SDS011;4185;41.506;24.938;2023-12-28T01:12:39;13.13;;;7.70;;
8293;SDS011;4185;41.506;24.938;2023-12-28T01:15:08;9.23;;;6.47;;
8293;SDS011;4185;41.506;24.938;2023-12-28T01:17:35;8.87;;;6.70;;
8293;SDS011;4185;41.506;24.938;2023-12-28T01:20:02;13.63;;;7.30;;
8293;SDS011;4185;41.506;24.938;2023-12-28T01:22:29;10.00;;;6.23;;
8293;SDS011;4185;41.506;24.938;2023-12-28T01:24:56;16.57;;;7.57;;
8293;SDS011;4185;41.506;24.938;2023-12-28T01:27:22;8.67;;;5.70;;
8293;SDS011;4185;41.506;24.938;2023-12-28T01:29:49;10.90;;;5.87;;
8293;SDS011;4185;41.506;24.938;2023-12-28T01:32:17;8.83;;;5.43;;
8293;SDS011;4185;41.506;24.938;2023-12-28T01:34:44;8.70;;;5.17;;
8293;SDS011;4185;41.506;24.938;2023-12-28T01:37:11;10.03;;;5.60;;
8293;SDS011;4185;41.506;24.938;2023-12-28T01:39:38;8.10;;;6.00;;
8293;SDS011;4185;41.506;24.938;2023-12-28T01:42:05;9.03;;;5.80;;
8293;SDS011;4185;41.506;24.938;2023-12-28T01:44:31;7.57;;;6.07;;
8293;SDS011;4185;41.506;24.938;2023-12-28T01:46:58;11.43;;;6.40;;
8293;SDS011;4185;41.506;24.938;2023-12-28T01:49:27;13.27;;;5.73;;
8293;SDS011;4185;41.506;24.938;2023-12-28T01:51:54;6.80;;;4.80;;
8293;SDS011;4185;41.506;24.938;2023-12-28T01:54:21;11.80;;;5.63;;
8293;SDS011;4185;41.506;24.938;2023-12-28T01:56:48;10.27;;;5.67;;
8293;SDS011;4185;41.506;24.938;2023-12-28T01:59:15;16.97;;;7.00;;
8293;SDS011;4185;41.506;24.938;2023-12-28T02:01:43;21.87;;;10.90;;
8293;SDS011;4185;41.506;24.938;2023-12-28T02:04:11;15.20;;;6.90;;
8293;SDS011;4185;41.506;24.938;2023-12-28T02:06:40;9.30;;;6.37;;
8293;SDS011;4185;41.506;24.938;2023-12-28T02:09:06;10.67;;;5.93;;
8293;SDS011;4185;41.506;24.938;2023-12-28T02:11:33;9.47;;;5.37;;
8293;SDS011;4185;41.506;24.938;2023-12-28T02:14:00;11.33;;;5.60;;
8293;SDS011;4185;41.506;24.938;2023-12-28T02:16:28;9.70;;;5.33;;
8293;SDS011;4185;41.506;24.938;2023-12-28T02:18:59;8.67;;;5.30;;
8293;SDS011;4185;41.506;24.938;2023-12-28T02:21:29;13.33;;;5.37;;
8293;SDS011;4185;41.506;24.938;2023-12-28T02:24:00;7.80;;;5.40;;
8293;SDS011;4185;41.506;24.938;2023-12-28T02:26:28;10.13;;;5.23;;
8293;SDS011;4185;41.506;24.938;2023-12-28T02:28:54;10.23;;;5.50;;
8293;SDS011;4185;41.506;24.938;2023-12-28T02:31:21;18.40;;;8.43;;
8293;SDS011;4185;41.506;24.938;2023-12-28T02:33:54;10.77;;;6.63;;
8293;SDS011;4185;41.506;24.938;2023-12-28T02:36:31;9.33;;;5.80;;
8293;SDS011;4185;41.506;24.938;2023-12-28T02:39:00;13.07;;;7.87;;
8293;SDS011;4185;41.506;24.938;2023-12-28T02:41:29;14.20;;;7.10;;
8293;SDS011;4185;41.506;24.938;2023-12-28T02:43:58;9.77;;;5.73;;
8293;SDS011;4185;41.506;24.938;2023-12-28T02:46:24;10.10;;;6.17;;
8293;SDS011;4185;41.506;24.938;2023-12-28T02:48:51;8.23;;;5.73;;
8293;SDS011;4185;41.506;24.938;2023-12-28T02:51:22;8.70;;;5.63;;
8293;SDS011;4185;41.506;24.938;2023-12-28T02:53:49;8.63;;;5.70;;
8293;SDS011;4185;41.506;24.938;2023-12-28T02:56:15;9.57;;;5.77;;
8293;SDS011;4185;41.506;24.938;2023-12-28T02:58:43;7.13;;;5.37;;
8293;SDS011;4185;41.506;24.938;2023-12-28T03:01:10;11.80;;;4.90;;
8293;SDS011;4185;41.506;24.938;2023-12-28T03:03:37;6.90;;;4.67;;
8293;SDS011;4185;41.506;24.938;2023-12-28T03:06:04;9.67;;;4.67;;
8293;SDS011;4185;41.506;24.938;2023-12-28T03:08:31;5.70;;;4.83;;
8293;SDS011;4185;41.506;24.938;2023-12-28T03:10:58;10.63;;;6.00;;
8293;SDS011;4185;41.506;24.938;2023-12-28T03:13:26;10.30;;;5.37;;
8293;SDS011;4185;41.506;24.938;2023-12-28T03:15:54;8.40;;;5.00;;
8293;SDS011;4185;41.506;24.938;2023-12-28T03:18:21;6.50;;;4.63;;
8293;SDS011;4185;41.506;24.938;2023-12-28T03:20:48;6.30;;;4.80;;
8293;SDS011;4185;41.506;24.938;2023-12-28T03:23:14;8.50;;;4.53;;
8293;SDS011;4185;41.506;24.938;2023-12-28T03:25:41;5.37;;;4.43;;
8293;SDS011;4185;41.506;24.938;2023-12-28T03:28:08;7.70;;;5.07;;
8293;SDS011;4185;41.506;24.938;2023-12-28T03:30:35;7.70;;;4.73;;
8293;SDS011;4185;41.506;24.938;2023-12-28T03:33:03;9.37;;;5.23;;
8293;SDS011;4185;41.506;24.938;2023-12-28T03:35:30;5.53;;;4.60;;
8293;SDS011;4185;41.506;24.938;2023-12-28T03:37:57;6.53;;;4.53;;
8293;SDS011;4185;41.506;24.938;2023-12-28T03:40:23;6.77;;;4.60;;
8293;SDS011;4185;41.506;24.938;2023-12-28T03:42:50;7.57;;;4.57;;
8293;SDS011;4185;41.506;24.938;2023-12-28T03:45:17;8.10;;;4.97;;
8293;SDS011;4185;41.506;24.938;2023-12-28T03:47:43;7.13;;;4.60;;
8293;SDS011;4185;41.506;24.938;2023-12-28T03:50:11;11.93;;;5.53;;
8293;SDS011;4185;41.506;24.938;2023-12-28T03:52:38;6.47;;;5.47;;
8293;SDS011;4185;41.506;24.938;2023-12-28T03:55:05;10.37;;;5.03;;
8293;SDS011;4185;41.506;24.938;2023-12-28T03:57:32;8.47;;;5.20;;
8293;SDS011;4185;41.506;24.938;2023-12-28T03:59:59;9.17;;;5.00;;
8293;SDS011;4185;41.506;24.938;2023-12-28T04:02:25;9.83;;;5.53;;
8293;SDS011;4185;41.506;24.938;2023-12-28T04:04:56;7.67;;;4.90;;
8293;SDS011;4185;41.506;24.938;2023-12-28T04:07:25;5.57;;;4.83;;
8293;SDS011;4185;41.506;24.938;2023-12-28T04:09:51;8.73;;;4.60;;
8293;SDS011;4185;41.506;24.938;2023-12-28T04:12:18;7.53;;;4.93;;
8293;SDS011;4185;41.506;24.938;2023-12-28T04:14:45;6.53;;;4.60;;
8293;SDS011;4185;41.506;24.938;2023-12-28T04:17:12;7.43;;;5.30;;
8293;SDS011;4185;41.506;24.938;2023-12-28T04:19:38;8.47;;;5.30;;
8293;SDS011;4185;41.506;24.938;2023-12-28T04:22:05;6.30;;;5.23;;
8293;SDS011;4185;41.506;24.938;2023-12-28T04:24:33;9.00;;;5.70;;
8293;SDS011;4185;41.506;24.938;2023-12-28T04:27:00;9.13;;;5.10;;
8293;SDS011;4185;41.506;24.938;2023-12-28T04:29:27;10.83;;;5.93;;
8293;SDS011;4185;41.506;24.938;2023-12-28T04:31:53;8.43;;;5.57;;
8293;SDS011;4185;41.506;24.938;2023-12-28T04:34:20;8.13;;;4.30;;
8293;SDS011;4185;41.506;24.938;2023-12-28T04:36:47;10.17;;;4.83;;
8293;SDS011;4185;41.506;24.938;2023-12-28T04:39:14;5.63;;;3.80;;
8293;SDS011;4185;41.506;24.938;2023-12-28T04:41:42;8.90;;;4.80;;
8293;SDS011;4185;41.506;24.938;2023-12-28T04:44:09;9.13;;;4.43;;
8293;SDS011;4185;41.506;24.938;2023-12-28T04:46:37;6.30;;;4.60;;
8293;SDS011;4185;41.506;24.938;2023-12-28T04:49:05;4.70;;;4.23;;
8293;SDS011;4185;41.506;24.938;2023-12-28T04:51:32;6.50;;;5.13;;
8293;SDS011;4185;41.506;24.938;2023-12-28T04:53:58;7.73;;;5.03;;
8293;SDS011;4185;41.506;24.938;2023-12-28T04:56:25;10.07;;;5.00;;
8293;SDS011;4185;41.506;24.938;2023-12-28T04:58:53;9.67;;;5.77;;
8293;SDS011;4185;41.506;24.938;2023-12-28T05:01:20;11.60;;;6.83;;
8293;SDS011;4185;41.506;24.938;2023-12-28T05:03:47;10.37;;;6.47;;
8293;SDS011;4185;41.506;24.938;2023-12-28T05:06:14;10.03;;;5.83;;
8293;SDS011;4185;41.506;24.938;2023-12-28T05:08:41;11.00;;;6.77;;
8293;SDS011;4185;41.506;24.938;2023-12-28T05:11:08;11.63;;;7.50;;
8293;SDS011;4185;41.506;24.938;2023-12-28T05:13:34;7.90;;;6.30;;
8293;SDS011;4185;41.506;24.938;2023-12-28T05:16:03;10.43;;;6.90;;
8293;SDS011;4185;41.506;24.938;2023-12-28T05:18:30;13.30;;;7.03;;
8293;SDS011;4185;41.506;24.938;2023-12-28T05:20:57;14.53;;;6.50;;
8293;SDS011;4185;41.506;24.938;2023-12-28T05:23:24;9.13;;;5.87;;
8293;SDS011;4185;41.506;24.938;2023-12-28T05:25:51;11.00;;;6.43;;
8293;SDS011;4185;41.506;24.938;2023-12-28T05:28:18;9.20;;;5.83;;
8293;SDS011;4185;41.506;24.938;2023-12-28T05:30:45;10.67;;;6.30;;
8293;SDS011;4185;41.506;24.938;2023-12-28T05:33:13;9.20;;;6.17;;
8293;SDS011;4185;41.506;24.938;2023-12-28T05:35:40;12.37;;;7.40;;
8293;SDS011;4185;41.506;24.938;2023-12-28T05:38:06;8.97;;;6.90;;
8293;SDS011;4185;41.506;24.938;2023-12-28T05:40:33;7.77;;;5.43;;
8293;SDS011;4185;41.506;24.938;2023-12-28T05:43:00;10.27;;;6.63;;
8293;SDS011;4185;41.506;24.938;2023-12-28T05:45:27;6.43;;;5.73;;
8293;SDS011;4185;41.506;24.938;2023-12-28T05:47:53;9.10;;;6.23;;
8293;SDS011;4185;41.506;24.938;2023-12-28T05:50:22;9.87;;;6.50;;
8293;SDS011;4185;41.506;24.938;2023-12-28T05:52:48;11.83;;;7.60;;
8293;SDS011;4185;41.506;24.938;2023-12-28T05:55:15;8.47;;;5.50;;
8293;SDS011;4185;41.506;24.938;2023-12-28T05:57:42;11.03;;;6.37;;
8293;SDS011;4185;41.506;24.938;2023-12-28T06:00:09;14.80;;;7.50;;
8293;SDS011;4185;41.506;24.938;2023-12-28T06:02:37;10.17;;;7.20;;
8293;SDS011;4185;41.506;24.938;2023-12-28T06:05:04;12.77;;;8.50;;
8293;SDS011;4185;41.506;24.938;2023-12-28T06:07:32;11.37;;;8.23;;
8293;SDS011;4185;41.506;24.938;2023-12-28T06:09:59;17.03;;;10.83;;
8293;SDS011;4185;41.506;24.938;2023-12-28T06:12:25;21.30;;;10.97;;
8293;SDS011;4185;41.506;24.938;2023-12-28T06:14:52;16.63;;;10.10;;
8293;SDS011;4185;41.506;24.938;2023-12-28T06:17:19;12.43;;;8.43;;
8293;SDS011;4185;41.506;24.938;2023-12-28T06:19:45;12.47;;;8.40;;
8293;SDS011;4185;41.506;24.938;2023-12-28T06:22:12;10.30;;;8.50;;
8293;SDS011;4185;41.506;24.938;2023-12-28T06:24:40;12.73;;;8.30;;
8293;SDS011;4185;41.506;24.938;2023-12-28T06:27:07;16.63;;;9.10;;
8293;SDS011;4185;41.506;24.938;2023-12-28T06:29:34;15.70;;;7.50;;
8293;SDS011;4185;41.506;24.938;2023-12-28T06:32:01;17.80;;;10.07;;
8293;SDS011;4185;41.506;24.938;2023-12-28T06:34:27;17.20;;;9.77;;
8293;SDS011;4185;41.506;24.938;2023-12-28T06:36:54;20.30;;;13.63;;
8293;SDS011;4185;41.506;24.938;2023-12-28T06:39:21;16.17;;;9.53;;
8293;SDS011;4185;41.506;24.938;2023-12-28T06:41:49;17.60;;;9.47;;
8293;SDS011;4185;41.506;24.938;2023-12-28T06:44:16;15.40;;;9.77;;
8293;SDS011;4185;41.506;24.938;2023-12-28T06:46:42;30.47;;;14.93;;
8293;SDS011;4185;41.506;24.938;2023-12-28T06:49:09;26.07;;;12.07;;
8293;SDS011;4185;41.506;24.938;2023-12-28T06:51:36;17.20;;;10.63;;
8293;SDS011;4185;41.506;24.938;2023-12-28T06:54:03;26.70;;;11.93;;
8293;SDS011;4185;41.506;24.938;2023-12-28T06:56:30;20.03;;;11.73;;
8293;SDS011;4185;41.506;24.938;2023-12-28T06:58:58;24.57;;;11.47;;
8293;SDS011;4185;41.506;24.938;2023-12-28T07:01:25;21.47;;;10.43;;
8293;SDS011;4185;41.506;24.938;2023-12-28T07:03:51;20.37;;;10.00;;
8293;SDS011;4185;41.506;24.938;2023-12-28T07:06:18;16.07;;;9.33;;
8293;SDS011;4185;41.506;24.938;2023-12-28T07:08:45;19.87;;;11.27;;
8293;SDS011;4185;41.506;24.938;2023-12-28T07:11:12;17.03;;;9.53;;
8293;SDS011;4185;41.506;24.938;2023-12-28T07:13:39;16.10;;;8.60;;
8293;SDS011;4185;41.506;24.938;2023-12-28T07:16:07;27.57;;;12.33;;
8293;SDS011;4185;41.506;24.938;2023-12-28T07:18:34;22.60;;;12.80;;
8293;SDS011;4185;41.506;24.938;2023-12-28T07:21:01;30.47;;;16.30;;
8293;SDS011;4185;41.506;24.938;2023-12-28T07:23:27;28.20;;;14.03;;
8293;SDS011;4185;41.506;24.938;2023-12-28T07:25:55;22.43;;;11.80;;
8293;SDS011;4185;41.506;24.938;2023-12-28T07:28:21;21.10;;;10.77;;
8293;SDS011;4185;41.506;24.938;2023-12-28T07:30:48;20.33;;;10.00;;
8293;SDS011;4185;41.506;24.938;2023-12-28T07:33:16;21.50;;;11.20;;
8293;SDS011;4185;41.506;24.938;2023-12-28T07:35:43;24.00;;;12.50;;
8293;SDS011;4185;41.506;24.938;2023-12-28T07:38:10;33.00;;;15.10;;
8293;SDS011;4185;41.506;24.938;2023-12-28T07:40:37;34.83;;;14.93;;
8293;SDS011;4185;41.506;24.938;2023-12-28T07:43:04;26.93;;;14.00;;
8293;SDS011;4185;41.506;24.938;2023-12-28T07:45:31;30.33;;;13.73;;
8293;SDS011;4185;41.506;24.938;2023-12-28T07:47:58;23.20;;;11.97;;
8293;SDS011;4185;41.506;24.938;2023-12-28T07:50:27;38.87;;;16.83;;
8293;SDS011;4185;41.506;24.938;2023-12-28T07:52:54;40.00;;;18.30;;
8293;SDS011;4185;41.506;24.938;2023-12-28T07:55:20;40.17;;;17.53;;
8293;SDS011;4185;41.506;24.938;2023-12-28T07:57:47;28.60;;;13.70;;
8293;SDS011;4185;41.506;24.938;2023-12-28T08:00:14;31.93;;;15.83;;
8293;SDS011;4185;41.506;24.938;2023-12-28T08:02:41;23.07;;;13.97;;
8293;SDS011;4185;41.506;24.938;2023-12-28T08:05:08;27.30;;;13.03;;
8293;SDS011;4185;41.506;24.938;2023-12-28T08:07:36;23.87;;;12.33;;
8293;SDS011;4185;41.506;24.938;2023-12-28T08:10:04;22.80;;;10.67;;
8293;SDS011;4185;41.506;24.938;2023-12-28T08:12:31;29.43;;;15.57;;
8293;SDS011;4185;41.506;24.938;2023-12-28T08:14:59;38.67;;;18.30;;
8293;SDS011;4185;41.506;24.938;2023-12-28T08:17:26;36.33;;;17.90;;
8293;SDS011;4185;41.506;24.938;2023-12-28T08:19:53;41.93;;;17.40;;
8293;SDS011;4185;41.506;24.938;2023-12-28T08:22:20;32.00;;;16.67;;
8293;SDS011;4185;41.506;24.938;2023-12-28T08:24:48;32.20;;;16.00;;
8293;SDS011;4185;41.506;24.938;2023-12-28T08:27:15;37.30;;;17.37;;
8293;SDS011;4185;41.506;24.938;2023-12-28T08:29:42;42.87;;;18.70;;
8293;SDS011;4185;41.506;24.938;2023-12-28T08:32:09;31.93;;;16.60;;
8293;SDS011;4185;41.506;24.938;2023-12-28T08:34:36;33.63;;;16.73;;
8293;SDS011;4185;41.506;24.938;2023-12-28T08:37:03;41.57;;;20.20;;
8293;SDS011;4185;41.506;24.938;2023-12-28T08:39:30;26.23;;;14.43;;
8293;SDS011;4185;41.506;24.938;2023-12-28T08:41:58;17.50;;;9.67;;
8293;SDS011;4185;41.506;24.938;2023-12-28T08:44:25;16.90;;;10.63;;
8293;SDS011;4185;41.506;24.938;2023-12-28T08:46:52;15.03;;;8.97;;
8293;SDS011;4185;41.506;24.938;2023-12-28T08:49:19;13.90;;;9.50;;
8293;SDS011;4185;41.506;24.938;2023-12-28T08:51:47;13.37;;;9.80;;
8293;SDS011;4185;41.506;24.938;2023-12-28T08:54:14;15.90;;;11.57;;
8293;SDS011;4185;41.506;24.938;2023-12-28T08:56:41;19.43;;;12.17;;
8293;SDS011;4185;41.506;24.938;2023-12-28T08:59:10;24.37;;;15.97;;
8293;SDS011;4185;41.506;24.938;2023-12-28T09:01:37;24.83;;;13.90;;
8293;SDS011;4185;41.506;24.938;2023-12-28T09:04:03;18.40;;;12.13;;
8293;SDS011;4185;41.506;24.938;2023-12-28T09:06:30;16.53;;;11.63;;
8293;SDS011;4185;41.506;24.938;2023-12-28T09:08:57;14.23;;;9.23;;
8293;SDS011;4185;41.506;24.938;2023-12-28T09:11:24;15.63;;;10.10;;
8293;SDS011;4185;41.506;24.938;2023-12-28T09:13:52;11.30;;;8.63;;
8293;SDS011;4185;41.506;24.938;2023-12-28T09:16:20;15.47;;;10.93;;
8293;SDS011;4185;41.506;24.938;2023-12-28T09:18:47;13.60;;;9.27;;
8293;SDS011;4185;41.506;24.938;2023-12-28T09:21:14;19.73;;;13.10;;
8293;SDS011;4185;41.506;24.938;2023-12-28T09:23:40;21.03;;;13.20;;
8293;SDS011;4185;41.506;24.938;2023-12-28T09:26:07;26.03;;;16.80;;
8293;SDS011;4185;41.506;24.938;2023-12-28T09:28:34;26.57;;;16.53;;
8293;SDS011;4185;41.506;24.938;2023-12-28T09:31:01;26.73;;;16.70;;
8293;SDS011;4185;41.506;24.938;2023-12-28T09:33:30;27.57;;;17.93;;
8293;SDS011;4185;41.506;24.938;2023-12-28T09:35:57;25.23;;;17.67;;
8293;SDS011;4185;41.506;24.938;2023-12-28T09:38:24;23.97;;;16.70;;
8293;SDS011;4185;41.506;24.938;2023-12-28T09:40:52;32.90;;;21.53;;
8293;SDS011;4185;41.506;24.938;2023-12-28T09:43:21;38.27;;;23.83;;
8293;SDS011;4185;41.506;24.938;2023-12-28T09:45:50;45.13;;;25.20;;
8293;SDS011;4185;41.506;24.938;2023-12-28T09:48:17;33.23;;;17.87;;
8293;SDS011;4185;41.506;24.938;2023-12-28T09:50:48;30.30;;;17.97;;
8293;SDS011;4185;41.506;24.938;2023-12-28T09:53:15;23.50;;;16.83;;
8293;SDS011;4185;41.506;24.938;2023-12-28T09:55:42;27.80;;;16.60;;
8293;SDS011;4185;41.506;24.938;2023-12-28T09:58:09;25.77;;;17.40;;
8293;SDS011;4185;41.506;24.938;2023-12-28T10:00:40;25.13;;;17.23;;
8293;SDS011;4185;41.506;24.938;2023-12-28T10:03:07;24.10;;;17.30;;
8293;SDS011;4185;41.506;24.938;2023-12-28T10:05:33;24.33;;;15.30;;
8293;SDS011;4185;41.506;24.938;2023-12-28T10:08:02;19.67;;;13.03;;
8293;SDS011;4185;41.506;24.938;2023-12-28T10:10:28;20.37;;;13.37;;
8293;SDS011;4185;41.506;24.938;2023-12-28T10:12:55;21.47;;;13.70;;
8293;SDS011;4185;41.506;24.938;2023-12-28T10:15:22;19.77;;;12.80;;
8293;SDS011;4185;41.506;24.938;2023-12-28T10:17:51;20.63;;;12.73;;
8293;SDS011;4185;41.506;24.938;2023-12-28T10:20:18;15.47;;;10.50;;
8293;SDS011;4185;41.506;24.938;2023-12-28T10:22:44;13.30;;;10.27;;
8293;SDS011;4185;41.506;24.938;2023-12-28T10:25:13;19.23;;;12.93;;
8293;SDS011;4185;41.506;24.938;2023-12-28T10:27:39;15.83;;;10.27;;
8293;SDS011;4185;41.506;24.938;2023-12-28T10:30:07;13.17;;;9.20;;
8293;SDS011;4185;41.506;24.938;2023-12-28T10:32:35;14.33;;;9.00;;
8293;SDS011;4185;41.506;24.938;2023-12-28T10:35:02;16.30;;;10.70;;
8293;SDS011;4185;41.506;24.938;2023-12-28T10:37:30;12.23;;;7.47;;
8293;SDS011;4185;41.506;24.938;2023-12-28T10:39:58;10.70;;;7.30;;
8293;SDS011;4185;41.506;24.938;2023-12-28T10:42:32;16.40;;;9.03;;
8293;SDS011;4185;41.506;24.938;2023-12-28T10:45:05;19.30;;;11.27;;
8293;SDS011;4185;41.506;24.938;2023-12-28T10:47:37;19.07;;;10.07;;
8293;SDS011;4185;41.506;24.938;2023-12-28T10:50:08;22.30;;;10.33;;
8293;SDS011;4185;41.506;24.938;2023-12-28T10:52:36;10.77;;;7.43;;
8293;SDS011;4185;41.506;24.938;2023-12-28T10:55:12;14.23;;;8.33;;
8293;SDS011;4185;41.506;24.938;2023-12-28T10:57:53;16.80;;;8.87;;
8293;SDS011;4185;41.506;24.938;2023-12-28T11:00:25;27.33;;;13.87;;
8293;SDS011;4185;41.506;24.938;2023-12-28T11:02:56;16.50;;;10.00;;
8293;SDS011;4185;41.506;24.938;2023-12-28T11:05:28;15.77;;;10.17;;
8293;SDS011;4185;41.506;24.938;2023-12-28T11:07:57;17.20;;;9.20;;
8293;SDS011;4185;41.506;24.938;2023-12-28T11:10:25;15.27;;;9.60;;
8293;SDS011;4185;41.506;24.938;2023-12-28T11:12:57;12.10;;;7.80;;
8293;SDS011;4185;41.506;24.938;2023-12-28T11:15:26;10.37;;;7.23;;
8293;SDS011;4185;41.506;24.938;2023-12-28T11:17:52;8.77;;;5.90;;
8293;SDS011;4185;41.506;24.938;2023-12-28T11:20:20;9.30;;;5.83;;
8293;SDS011;4185;41.506;24.938;2023-12-28T11:22:47;9.43;;;5.47;;
8293;SDS011;4185;41.506;24.938;2023-12-28T11:25:15;6.50;;;4.70;;
8293;SDS011;4185;41.506;24.938;2023-12-28T11:27:43;7.63;;;5.10;;
8293;SDS011;4185;41.506;24.938;2023-12-28T11:30:13;10.80;;;7.33;;
8293;SDS011;4185;41.506;24.938;2023-12-28T11:32:40;9.43;;;5.53;;
8293;SDS011;4185;41.506;24.938;2023-12-28T11:35:08;6.33;;;3.90;;
8293;SDS011;4185;41.506;24.938;2023-12-28T11:37:38;5.77;;;4.17;;
8293;SDS011;4185;41.506;24.938;2023-12-28T11:40:10;7.10;;;3.70;;
8293;SDS011;4185;41.506;24.938;2023-12-28T11:42:47;6.10;;;4.10;;
8293;SDS011;4185;41.506;24.938;2023-12-28T11:45:17;6.07;;;3.07;;
8293;SDS011;4185;41.506;24.938;2023-12-28T11:47:44;7.77;;;3.70;;
8293;SDS011;4185;41.506;24.938;2023-12-28T11:50:11;6.83;;;4.20;;
8293;SDS011;4185;41.506;24.938;2023-12-28T11:52:38;5.27;;;3.67;;
8293;SDS011;4185;41.506;24.938;2023-12-28T11:55:05;6.60;;;3.90;;
8293;SDS011;4185;41.506;24.938;2023-12-28T11:57:32;5.03;;;3.47;;
8293;SDS011;4185;41.506;24.938;2023-12-28T12:00:00;5.67;;;3.77;;
8293;SDS011;4185;41.506;24.938;2023-12-28T12:02:30;8.47;;;4.20;;
8293;SDS011;4185;41.506;24.938;2023-12-28T12:04:57;8.27;;;5.10;;
8293;SDS011;4185;41.506;24.938;2023-12-28T12:07:27;5.13;;;4.00;;
8293;SDS011;4185;41.506;24.938;2023-12-28T12:09:57;5.43;;;3.40;;
8293;SDS011;4185;41.506;24.938;2023-12-28T12:12:24;6.17;;;3.83;;
8293;SDS011;4185;41.506;24.938;2023-12-28T12:14:51;5.60;;;3.30;;
8293;SDS011;4185;41.506;24.938;2023-12-28T12:17:18;4.50;;;3.70;;
8293;SDS011;4185;41.506;24.938;2023-12-28T12:19:47;6.63;;;3.80;;
8293;SDS011;4185;41.506;24.938;2023-12-28T12:22:16;4.63;;;3.10;;
8293;SDS011;4185;41.506;24.938;2023-12-28T12:24:44;6.90;;;3.60;;
8293;SDS011;4185;41.506;24.938;2023-12-28T12:27:13;4.53;;;3.37;;
8293;SDS011;4185;41.506;24.938;2023-12-28T12:29:40;5.83;;;4.13;;
8293;SDS011;4185;41.506;24.938;2023-12-28T12:32:07;6.90;;;4.47;;
8293;SDS011;4185;41.506;24.938;2023-12-28T12:34:34;10.33;;;6.87;;
8293;SDS011;4185;41.506;24.938;2023-12-28T12:37:02;7.70;;;5.07;;
8293;SDS011;4185;41.506;24.938;2023-12-28T12:39:29;6.97;;;4.80;;
8293;SDS011;4185;41.506;24.938;2023-12-28T12:41:57;6.03;;;4.33;;
8293;SDS011;4185;41.506;24.938;2023-12-28T12:44:24;19.87;;;13.33;;
8293;SDS011;4185;41.506;24.938;2023-12-28T12:46:56;13.60;;;11.33;;
8293;SDS011;4185;41.506;24.938;2023-12-28T12:49:24;9.47;;;6.20;;
8293;SDS011;4185;41.506;24.938;2023-12-28T12:51:51;8.03;;;6.80;;
8293;SDS011;4185;41.506;24.938;2023-12-28T12:54:20;10.25;;;7.40;;
8293;SDS011;4185;41.506;24.938;2023-12-28T12:56:47;7.40;;;5.43;;
8293;SDS011;4185;41.506;24.938;2023-12-28T12:59:14;6.95;;;5.35;;
8293;SDS011;4185;41.506;24.938;2023-12-28T13:01:42;6.20;;;5.03;;
8293;SDS011;4185;41.506;24.938;2023-12-28T13:04:08;9.73;;;7.25;;
8293;SDS011;4185;41.506;24.938;2023-12-28T13:06:36;24.80;;;20.90;;
8293;SDS011;4185;41.506;24.938;2023-12-28T13:09:02;26.35;;;20.98;;
8293;SDS011;4185;41.506;24.938;2023-12-28T13:11:33;14.93;;;10.15;;
8293;SDS011;4185;41.506;24.938;2023-12-28T13:14:00;15.82;;;11.38;;
8293;SDS011;4185;41.506;24.938;2023-12-28T13:16:27;9.02;;;6.90;;
8293;SDS011;4185;41.506;24.938;2023-12-28T13:18:54;16.48;;;14.25;;
8293;SDS011;4185;41.506;24.938;2023-12-28T13:21:20;17.55;;;13.13;;
8293;SDS011;4185;41.506;24.938;2023-12-28T13:23:47;15.65;;;13.45;;
8293;SDS011;4185;41.506;24.938;2023-12-28T13:26:14;12.13;;;10.65;;
8293;SDS011;4185;41.506;24.938;2023-12-28T13:28:42;14.93;;;9.75;;
8293;SDS011;4185;41.506;24.938;2023-12-28T13:31:09;29.55;;;22.77;;
8293;SDS011;4185;41.506;24.938;2023-12-28T13:33:36;28.30;;;21.80;;
8293;SDS011;4185;41.506;24.938;2023-12-28T13:36:03;24.50;;;19.67;;
8293;SDS011;4185;41.506;24.938;2023-12-28T13:38:30;30.07;;;19.30;;
8293;SDS011;4185;41.506;24.938;2023-12-28T13:40:57;46.10;;;29.23;;
8293;SDS011;4185;41.506;24.938;2023-12-28T13:43:23;24.43;;;18.30;;
8293;SDS011;4185;41.506;24.938;2023-12-28T13:45:52;28.00;;;17.70;;
8293;SDS011;4185;41.506;24.938;2023-12-28T13:48:18;26.23;;;17.00;;
8293;SDS011;4185;41.506;24.938;2023-12-28T13:50:45;39.53;;;23.73;;
8293;SDS011;4185;41.506;24.938;2023-12-28T13:53:12;32.17;;;20.47;;
8293;SDS011;4185;41.506;24.938;2023-12-28T13:55:39;26.70;;;16.70;;
8293;SDS011;4185;41.506;24.938;2023-12-28T13:58:06;29.70;;;18.47;;
8293;SDS011;4185;41.506;24.938;2023-12-28T14:00:32;27.77;;;17.57;;
8293;SDS011;4185;41.506;24.938;2023-12-28T14:03:02;23.47;;;16.63;;
8293;SDS011;4185;41.506;24.938;2023-12-28T14:05:28;32.10;;;18.73;;
8293;SDS011;4185;41.506;24.938;2023-12-28T14:07:56;30.70;;;19.17;;
8293;SDS011;4185;41.506;24.938;2023-12-28T14:10:23;21.80;;;15.07;;
8293;SDS011;4185;41.506;24.938;2023-12-28T14:12:50;18.10;;;13.00;;
8293;SDS011;4185;41.506;24.938;2023-12-28T14:15:16;22.13;;;16.17;;
8293;SDS011;4185;41.506;24.938;2023-12-28T14:17:43;26.00;;;16.80;;
8293;SDS011;4185;41.506;24.938;2023-12-28T14:20:12;24.00;;;16.53;;
8293;SDS011;4185;41.506;24.938;2023-12-28T14:22:39;30.17;;;21.33;;
8293;SDS011;4185;41.506;24.938;2023-12-28T14:25:07;23.37;;;17.73;;
8293;SDS011;4185;41.506;24.938;2023-12-28T14:27:37;24.03;;;17.13;;
8293;SDS011;4185;41.506;24.938;2023-12-28T14:30:03;27.57;;;18.73;;
8293;SDS011;4185;41.506;24.938;2023-12-28T14:32:33;25.27;;;17.83;;
8293;SDS011;4185;41.506;24.938;2023-12-28T14:35:00;27.33;;;18.03;;
8293;SDS011;4185;41.506;24.938;2023-12-28T14:37:29;37.27;;;20.40;;
8293;SDS011;4185;41.506;24.938;2023-12-28T14:39:56;38.20;;;24.80;;
8293;SDS011;4185;41.506;24.938;2023-12-28T14:42:23;34.57;;;22.63;;
8293;SDS011;4185;41.506;24.938;2023-12-28T14:44:49;24.03;;;16.17;;
8293;SDS011;4185;41.506;24.938;2023-12-28T14:47:16;25.47;;;18.20;;
8293;SDS011;4185;41.506;24.938;2023-12-28T14:49:43;32.50;;;20.27;;